createdAt,value
2019-04-04T00:00:54.538Z,12.17
2019-04-04T00:03:23.419Z,10.30
2019-04-04T00:05:52.403Z,8.77
2019-04-04T00:08:21.361Z,9.83
2019-04-04T00:10:50.322Z,10.73
2019-04-04T00:13:19.183Z,10.87
2019-04-04T00:15:48.208Z,10.00
2019-04-04T00:18:17.117Z,9.00
2019-04-04T00:20:46.166Z,10.67
2019-04-04T00:23:15.057Z,14.00
2019-04-04T00:25:44.341Z,11.40
2019-04-04T00:28:14.893Z,9.73
2019-04-04T00:30:44.181Z,12.10
2019-04-04T00:33:13.209Z,13.83
2019-04-04T00:35:42.143Z,14.40
2019-04-04T00:38:11.169Z,14.00
2019-04-04T00:40:41.968Z,13.20
2019-04-04T00:43:10.825Z,9.87
2019-04-04T00:45:39.794Z,7.13
2019-04-04T00:48:08.824Z,8.90
2019-04-04T00:50:37.858Z,9.80
2019-04-04T00:53:06.763Z,8.07
2019-04-04T00:55:35.807Z,6.73
2019-04-04T00:58:07.790Z,8.57
2019-04-04T01:00:36.757Z,7.90
2019-04-04T01:03:05.713Z,7.33
2019-04-04T01:05:34.699Z,6.17
2019-04-04T01:08:04.946Z,6.43
2019-04-04T01:10:34.411Z,7.10
2019-04-04T01:13:03.436Z,8.43
2019-04-04T01:15:32.455Z,9.20
2019-04-04T01:18:01.426Z,5.93
2019-04-04T01:20:30.465Z,9.30
2019-04-04T01:23:00.082Z,7.20
2019-04-04T01:25:31.829Z,6.73
2019-04-04T01:27:59.800Z,8.00
2019-04-04T01:30:28.698Z,7.53
2019-04-04T01:32:57.670Z,7.63
2019-04-04T01:35:26.682Z,8.17
2019-04-04T01:37:56.060Z,9.20
2019-04-04T01:40:27.516Z,8.50
2019-04-04T01:42:56.423Z,7.50
2019-04-04T01:45:25.710Z,7.00
2019-04-04T01:47:54.660Z,7.20
2019-04-04T01:50:23.644Z,8.20
2019-04-04T01:52:52.542Z,8.47
2019-04-04T01:55:21.487Z,7.10
2019-04-04T01:57:50.381Z,7.40
2019-04-04T02:00:19.326Z,6.83
2019-04-04T02:02:51.566Z,7.13
2019-04-04T02:05:18.857Z,5.37
2019-04-04T02:07:47.811Z,6.13
2019-04-04T02:10:16.756Z,7.33
2019-04-04T02:12:45.883Z,8.67
2019-04-04T02:15:15.027Z,8.73
2019-04-04T02:17:44.141Z,8.10
2019-04-04T02:20:13.174Z,8.53
2019-04-04T02:22:44.904Z,6.80
2019-04-04T02:25:13.961Z,7.63
2019-04-04T02:27:42.844Z,7.00
2019-04-04T02:30:15.198Z,6.00
2019-04-04T02:32:42.577Z,6.90
2019-04-04T02:35:11.774Z,6.37
2019-04-04T02:37:40.828Z,6.47
2019-04-04T02:40:10.133Z,7.13
2019-04-04T02:42:39.264Z,7.50
2019-04-04T02:45:08.203Z,8.67
2019-04-04T02:47:37.266Z,9.60
2019-04-04T02:50:06.371Z,7.53
2019-04-04T02:52:35.400Z,7.23
2019-04-04T02:55:04.452Z,8.90
2019-04-04T02:57:33.508Z,7.33
2019-04-04T03:00:02.445Z,7.10
2019-04-04T03:02:31.322Z,8.77
2019-04-04T03:05:00.192Z,7.77
2019-04-04T03:07:30.976Z,8.03
2019-04-04T03:09:59.686Z,8.50
2019-04-04T03:12:28.544Z,8.30
2019-04-04T03:14:57.547Z,7.73
2019-04-04T03:17:31.551Z,6.07
2019-04-04T03:19:57.102Z,6.77
2019-04-04T03:22:27.545Z,9.57
2019-04-04T03:24:56.794Z,7.00
2019-04-04T03:27:27.172Z,6.33
2019-04-04T03:29:56.373Z,6.43
2019-04-04T03:32:25.260Z,9.63
2019-04-04T03:34:54.286Z,7.87
2019-04-04T03:37:23.483Z,9.70
2019-04-04T03:39:53.386Z,9.60
2019-04-04T03:42:22.556Z,9.80
2019-04-04T03:44:53.306Z,9.77
2019-04-04T03:47:22.048Z,10.17
2019-04-04T03:49:51.173Z,8.97
2019-04-04T03:52:20.032Z,8.17
2019-04-04T03:54:48.989Z,8.83
2019-04-04T03:57:17.815Z,8.93
2019-04-04T03:59:47.157Z,6.77
2019-04-04T04:02:18.592Z,8.37
2019-04-04T04:04:46.902Z,7.53
2019-04-04T04:07:15.809Z,8.53
2019-04-04T04:09:44.722Z,8.50
2019-04-04T04:12:16.049Z,8.80
2019-04-04T04:14:44.978Z,8.80
2019-04-04T04:17:13.798Z,8.00
2019-04-04T04:19:42.766Z,7.60
2019-04-04T04:22:13.095Z,8.07
2019-04-04T04:24:42.455Z,9.17
2019-04-04T04:27:14.488Z,9.30
2019-04-04T04:29:41.999Z,9.00
2019-04-04T04:32:10.920Z,7.13
2019-04-04T04:34:40.024Z,9.47
2019-04-04T04:37:09.029Z,8.93
2019-04-04T04:39:41.314Z,8.43
2019-04-04T04:42:09.551Z,10.27
2019-04-04T04:44:38.981Z,8.90
2019-04-04T04:47:07.906Z,8.80
2019-04-04T04:49:36.908Z,8.00
2019-04-04T04:52:05.837Z,9.57
2019-04-04T04:54:34.878Z,9.87
2019-04-04T04:57:04.842Z,8.40
2019-04-04T04:59:34.058Z,9.83
2019-04-04T05:02:02.863Z,8.10
2019-04-04T05:04:32.023Z,10.30
2019-04-04T05:07:00.968Z,7.73
2019-04-04T05:09:29.982Z,8.00
2019-04-04T05:11:58.922Z,9.20
2019-04-04T05:14:29.803Z,9.10
2019-04-04T05:16:58.627Z,7.97
2019-04-04T05:19:27.557Z,10.03
2019-04-04T05:21:56.377Z,9.13
2019-04-04T05:24:25.456Z,10.13
2019-04-04T05:26:54.434Z,9.10
2019-04-04T05:29:23.390Z,11.27
2019-04-04T05:31:52.258Z,9.00
2019-04-04T05:34:21.157Z,8.93
2019-04-04T05:36:50.082Z,10.57
2019-04-04T05:39:19.038Z,9.80
2019-04-04T05:41:47.903Z,11.70
2019-04-04T05:44:16.845Z,10.37
2019-04-04T05:46:45.720Z,10.27
2019-04-04T05:49:14.578Z,11.83
2019-04-04T05:51:43.509Z,11.23
2019-04-04T05:54:12.566Z,10.73
2019-04-04T05:56:44.275Z,10.47
2019-04-04T05:59:11.865Z,12.80
2019-04-04T06:01:40.922Z,10.30
2019-04-04T06:04:09.923Z,11.83
2019-04-04T06:06:38.830Z,12.50
2019-04-04T06:09:09.467Z,13.27
2019-04-04T06:11:38.402Z,14.10
2019-04-04T06:14:07.205Z,13.70
2019-04-04T06:16:36.211Z,13.90
2019-04-04T06:19:05.071Z,17.47
2019-04-04T06:21:33.943Z,13.50
2019-04-04T06:24:02.826Z,18.23
2019-04-04T06:26:31.710Z,17.57
2019-04-04T06:29:00.614Z,19.27
2019-04-04T06:31:30.925Z,16.13
2019-04-04T06:33:59.900Z,12.47
2019-04-04T06:36:28.666Z,11.60
2019-04-04T06:38:57.526Z,16.13
2019-04-04T06:41:28.303Z,12.80
2019-04-04T06:43:57.485Z,15.73
2019-04-04T06:46:26.514Z,18.87
2019-04-04T06:48:55.433Z,12.67
2019-04-04T06:51:24.343Z,9.60
2019-04-04T06:53:53.685Z,12.07
2019-04-04T06:56:23.277Z,9.27
2019-04-04T06:58:52.054Z,9.27
2019-04-04T07:01:21.992Z,10.40
2019-04-04T07:03:52.683Z,13.40
2019-04-04T07:06:21.697Z,10.77
2019-04-04T07:08:50.454Z,12.20
2019-04-04T07:11:21.445Z,11.00
2019-04-04T07:13:49.938Z,13.60
2019-04-04T07:16:18.838Z,11.93
2019-04-04T07:18:47.673Z,11.57
2019-04-04T07:21:19.893Z,13.67
2019-04-04T07:23:47.126Z,10.10
2019-04-04T07:26:15.937Z,13.07
2019-04-04T07:28:44.726Z,17.80
2019-04-04T07:31:15.858Z,22.13
2019-04-04T07:33:44.089Z,20.20
2019-04-04T07:36:14.260Z,20.40
2019-04-04T07:38:43.061Z,11.13
2019-04-04T07:41:14.581Z,16.27
2019-04-04T07:43:42.765Z,10.73
2019-04-04T07:46:16.773Z,10.77
2019-04-04T07:48:42.194Z,14.20
2019-04-04T07:51:11.090Z,11.20
2019-04-04T07:53:40.076Z,10.33
2019-04-04T07:56:09.030Z,10.97
2019-04-04T07:58:37.991Z,10.60
2019-04-04T08:01:06.858Z,12.30
2019-04-04T08:03:35.652Z,10.63
2019-04-04T08:06:04.448Z,12.57
2019-04-04T08:08:33.249Z,13.60
2019-04-04T08:11:03.182Z,10.60
2019-04-04T08:13:32.570Z,10.20
2019-04-04T08:16:01.471Z,12.70
2019-04-04T08:18:30.480Z,8.10
2019-04-04T08:20:59.344Z,9.17
2019-04-04T08:23:29.575Z,10.00
2019-04-04T08:28:49.657Z,7.20
2019-04-04T08:34:37.488Z,10.67
2019-04-04T08:37:25.768Z,10.10
2019-04-04T08:40:07.963Z,8.47
2019-04-04T08:42:49.727Z,6.93
2019-04-04T08:45:30.934Z,8.27
2019-04-04T08:48:15.285Z,8.90
2019-04-04T08:51:02.859Z,6.17
2019-04-04T08:56:27.408Z,4.93
2019-04-04T08:59:15.707Z,6.00
2019-04-04T09:07:50.303Z,5.60
2019-04-04T09:10:30.760Z,5.87
2019-04-04T09:15:58.141Z,3.90
2019-04-04T09:18:40.671Z,3.60
2019-04-04T09:21:22.114Z,6.40
2019-04-04T09:24:02.691Z,4.50
2019-04-04T09:26:43.430Z,5.40
2019-04-04T09:29:28.750Z,5.10
2019-04-04T09:32:22.046Z,4.03
2019-04-04T09:37:48.032Z,3.87
2019-04-04T09:43:20.649Z,3.07
2019-04-04T09:45:49.778Z,3.30
2019-04-04T09:48:38.165Z,2.47
2019-04-04T09:51:26.414Z,2.83
2019-04-04T09:54:08.997Z,3.87
2019-04-04T10:08:10.819Z,2.80
2019-04-04T10:10:59.653Z,2.30
2019-04-04T10:22:12.224Z,2.10
2019-04-04T10:28:17.376Z,5.20
2019-04-04T10:33:29.032Z,1.57
2019-04-04T10:45:21.588Z,2.97
2019-04-04T10:50:48.928Z,2.73
2019-04-04T10:56:12.953Z,2.80
2019-04-04T10:58:54.036Z,1.50
2019-04-04T11:04:42.149Z,1.70
2019-04-04T11:07:30.251Z,1.40
2019-04-04T11:10:10.860Z,1.60
2019-04-04T11:15:51.793Z,3.70
2019-04-04T11:21:20.594Z,8.87
2019-04-04T11:24:01.838Z,1.90
2019-04-04T11:26:45.975Z,2.70
2019-04-04T11:29:29.009Z,1.97
2019-04-04T11:33:44.629Z,21.80
2019-04-04T11:40:37.545Z,2.43
2019-04-04T11:43:18.865Z,2.30
2019-04-04T11:45:59.439Z,2.47
2019-04-04T11:48:40.287Z,3.80
2019-04-04T11:54:12.937Z,3.73
2019-04-04T11:56:41.906Z,2.83
2019-04-04T12:05:30.287Z,4.33
2019-04-04T12:10:59.740Z,2.00
2019-04-04T12:13:41.038Z,2.90
2019-04-04T12:16:25.467Z,3.57
2019-04-04T12:19:07.689Z,2.33
2019-04-04T12:21:50.749Z,2.90
2019-04-04T12:27:16.598Z,4.37
2019-04-04T12:30:00.113Z,3.77
2019-04-04T12:35:42.485Z,5.33
2019-04-04T12:41:20.140Z,3.90
2019-04-04T12:52:30.666Z,7.20
2019-04-04T12:58:04.202Z,6.53
2019-04-04T13:09:09.417Z,5.37
2019-04-04T13:11:38.581Z,3.47
2019-04-04T13:14:07.588Z,3.73
2019-04-04T13:16:36.481Z,3.63
2019-04-04T13:19:05.379Z,3.37
2019-04-04T13:21:34.430Z,5.03
2019-04-04T13:24:03.263Z,5.60
2019-04-04T13:26:32.528Z,3.03
2019-04-04T13:29:01.807Z,3.70
2019-04-04T13:31:31.580Z,2.37
2019-04-04T13:34:00.403Z,2.90
2019-04-04T13:36:29.292Z,3.40
2019-04-04T13:38:58.159Z,2.93
2019-04-04T13:41:27.221Z,3.67
2019-04-04T13:43:56.486Z,3.80
2019-04-04T13:46:35.863Z,4.60
2019-04-04T13:49:04.844Z,4.97
2019-04-04T13:51:33.770Z,3.17
2019-04-04T13:54:02.710Z,3.83
2019-04-04T13:56:31.641Z,3.30
2019-04-04T13:59:02.517Z,2.37
2019-04-04T14:01:31.726Z,2.70
2019-04-04T14:04:00.689Z,3.20
2019-04-04T14:06:29.590Z,2.10
2019-04-04T14:08:58.507Z,3.30
2019-04-04T14:11:27.349Z,3.20
2019-04-04T14:13:58.678Z,2.90
2019-04-04T14:16:26.968Z,3.60
2019-04-04T14:18:55.745Z,2.37
2019-04-04T14:21:24.635Z,2.80
2019-04-04T14:23:53.576Z,2.77
2019-04-04T14:26:22.647Z,3.40
2019-04-04T14:28:51.526Z,4.00
2019-04-04T14:31:20.548Z,4.07
2019-04-04T14:33:49.528Z,4.50
2019-04-04T14:36:18.378Z,4.33
2019-04-04T14:38:47.320Z,2.53
2019-04-04T14:41:16.429Z,3.03
2019-04-04T14:43:45.589Z,3.40
2019-04-04T14:46:14.545Z,2.60
2019-04-04T14:48:43.572Z,3.33
2019-04-04T14:51:13.210Z,2.83
2019-04-04T14:53:42.069Z,1.97
2019-04-04T14:56:11.031Z,2.40
2019-04-04T14:58:39.994Z,2.27
2019-04-04T15:01:08.860Z,5.30
2019-04-04T15:03:37.852Z,2.83
2019-04-04T15:06:06.647Z,2.90
2019-04-04T15:08:35.529Z,5.90
2019-04-04T15:11:04.621Z,1.83
2019-04-04T15:13:33.571Z,2.23
2019-04-04T15:16:15.490Z,2.37
2019-04-04T15:18:44.448Z,2.27
2019-04-04T15:21:13.361Z,1.80
2019-04-04T15:23:42.245Z,2.20
2019-04-04T15:26:11.102Z,2.10
2019-04-04T15:28:39.961Z,3.13
2019-04-04T15:31:08.913Z,2.27
2019-04-04T15:33:37.795Z,5.50
2019-04-04T15:36:09.138Z,2.37
2019-04-04T15:38:38.009Z,2.40
2019-04-04T15:41:07.012Z,2.80
2019-04-04T15:43:35.981Z,3.83
2019-04-04T15:46:04.891Z,2.63
2019-04-04T15:48:33.968Z,2.60
2019-04-04T15:51:03.053Z,3.60
2019-04-04T15:53:32.027Z,2.47
2019-04-04T15:56:00.947Z,2.40
2019-04-04T15:58:30.310Z,2.30
2019-04-04T16:00:59.254Z,3.53
2019-04-04T16:03:28.196Z,4.63
2019-04-04T16:05:57.109Z,3.13
2019-04-04T16:08:26.084Z,3.00
2019-04-04T16:10:55.172Z,3.97
2019-04-04T16:13:24.164Z,3.17
2019-04-04T16:15:53.404Z,3.20
2019-04-04T16:18:22.415Z,4.30
2019-04-04T16:20:51.311Z,3.30
2019-04-04T16:23:20.293Z,11.73
2019-04-04T16:25:49.233Z,2.87
2019-04-04T16:28:18.096Z,4.10
2019-04-04T16:30:46.939Z,3.00
2019-04-04T16:33:15.971Z,3.50
2019-04-04T16:35:44.966Z,2.73
2019-04-04T16:38:13.832Z,3.23
2019-04-04T16:40:42.678Z,3.30
2019-04-04T16:43:11.645Z,3.53
2019-04-04T16:45:43.724Z,4.13
2019-04-04T16:48:14.007Z,3.20
2019-04-04T16:50:43.252Z,4.80
2019-04-04T16:53:12.228Z,3.47
2019-04-04T16:55:41.200Z,5.10
2019-04-04T16:58:10.032Z,5.10
2019-04-04T17:00:39.033Z,5.93
2019-04-04T17:03:07.882Z,3.63
2019-04-04T17:05:37.071Z,4.63
2019-04-04T17:08:06.024Z,4.30
2019-04-04T17:10:35.014Z,14.00
2019-04-04T17:13:03.957Z,37.87
2019-04-04T17:15:32.975Z,68.80
2019-04-04T17:18:02.159Z,41.60
2019-04-04T17:20:33.772Z,61.37
2019-04-04T17:23:02.858Z,21.57
2019-04-04T17:25:31.845Z,24.27
2019-04-04T17:28:00.732Z,12.90
2019-04-04T17:30:29.553Z,16.03
2019-04-04T17:32:58.945Z,17.67
2019-04-04T17:35:28.178Z,9.97
2019-04-04T17:37:57.787Z,6.47
2019-04-04T17:40:27.097Z,10.17
2019-04-04T17:42:56.752Z,12.87
2019-04-04T17:45:25.781Z,10.57
2019-04-04T17:47:54.810Z,33.07
2019-04-04T17:50:24.111Z,45.13
2019-04-04T17:52:53.026Z,14.67
2019-04-04T17:55:21.925Z,8.23
2019-04-04T17:57:51.419Z,6.23
2019-04-04T18:00:21.188Z,10.73
2019-04-04T18:02:49.994Z,8.17
2019-04-04T18:05:19.034Z,5.80
2019-04-04T18:07:47.993Z,7.33
2019-04-04T18:10:17.140Z,8.07
2019-04-04T18:12:46.432Z,8.50
2019-04-04T18:15:15.489Z,7.17
2019-04-04T18:17:44.503Z,8.87
2019-04-04T18:20:13.521Z,9.10
2019-04-04T18:22:42.496Z,10.30
2019-04-04T18:25:11.566Z,7.40
2019-04-04T18:27:42.635Z,11.67
2019-04-04T18:30:11.293Z,20.87
2019-04-04T18:32:40.333Z,16.27
2019-04-04T18:35:09.389Z,22.87
2019-04-04T18:37:38.463Z,44.17
2019-04-04T18:40:07.645Z,31.63
2019-04-04T18:42:36.676Z,37.30
2019-04-04T18:45:05.986Z,21.17
2019-04-04T18:47:35.093Z,24.23
2019-04-04T18:50:04.359Z,54.70
2019-04-04T18:52:33.349Z,12.30
2019-04-04T18:55:02.362Z,10.10
2019-04-04T18:57:31.364Z,10.90
2019-04-04T19:00:00.341Z,20.30
2019-04-04T19:02:29.320Z,61.47
2019-04-04T19:04:58.362Z,48.80
2019-04-04T19:07:38.664Z,29.57
2019-04-04T19:09:57.949Z,20.23
2019-04-04T19:12:27.054Z,7.70
2019-04-04T19:14:56.085Z,9.87
2019-04-04T19:17:25.193Z,9.73
2019-04-04T19:19:54.270Z,9.57
2019-04-04T19:22:23.373Z,12.27
2019-04-04T19:24:52.402Z,12.80
2019-04-04T19:27:21.479Z,11.63
2019-04-04T19:29:50.617Z,12.33
2019-04-04T19:32:19.660Z,11.23
2019-04-04T19:34:48.648Z,9.20
2019-04-04T19:37:17.772Z,9.27
2019-04-04T19:39:46.846Z,8.30
2019-04-04T19:42:15.911Z,9.30
2019-04-04T19:44:53.078Z,9.83
2019-04-04T19:47:15.933Z,10.53
2019-04-04T19:49:45.056Z,9.63
2019-04-04T19:52:13.938Z,10.20
2019-04-04T19:54:42.964Z,17.40
2019-04-04T19:57:11.934Z,10.00
2019-04-04T19:59:40.841Z,10.90
2019-04-04T20:02:10.088Z,10.50
2019-04-04T20:04:39.316Z,8.90
2019-04-04T20:07:08.901Z,10.03
2019-04-04T20:09:37.890Z,8.77
2019-04-04T20:12:06.884Z,9.20
2019-04-04T20:14:35.888Z,12.30
2019-04-04T20:17:05.139Z,19.20
2019-04-04T20:19:34.256Z,20.27
2019-04-04T20:22:03.329Z,10.37
2019-04-04T20:24:35.529Z,15.03
2019-04-04T20:27:04.439Z,26.10
2019-04-04T20:29:33.465Z,22.10
2019-04-04T20:32:02.558Z,17.20
2019-04-04T20:34:31.515Z,16.93
2019-04-04T20:37:00.508Z,17.23
2019-04-04T20:39:29.746Z,14.57
2019-04-04T20:41:58.785Z,11.87
2019-04-04T20:44:27.767Z,10.40
2019-04-04T20:46:56.733Z,19.50
2019-04-04T20:49:25.776Z,12.43
2019-04-04T20:51:54.848Z,17.87
2019-04-04T20:54:23.835Z,14.40
2019-04-04T20:56:52.922Z,12.00
2019-04-04T20:59:21.842Z,12.53
2019-04-04T21:01:50.795Z,11.00
2019-04-04T21:04:19.742Z,13.53
2019-04-04T21:06:48.617Z,14.33
2019-04-04T21:09:17.608Z,19.63
2019-04-04T21:11:46.817Z,16.13
2019-04-04T21:14:16.163Z,12.20
2019-04-04T21:16:45.150Z,12.17
2019-04-04T21:19:14.054Z,14.23
2019-04-04T21:21:43.035Z,14.30
2019-04-04T21:24:12.030Z,14.83
2019-04-04T21:26:41.451Z,10.80
2019-04-04T21:29:10.463Z,14.60
2019-04-04T21:31:39.660Z,13.30
2019-04-04T21:34:08.687Z,12.40
2019-04-04T21:36:37.623Z,16.23
2019-04-04T21:39:07.862Z,14.07
2019-04-04T21:41:36.871Z,18.13
2019-04-04T21:44:09.050Z,15.27
2019-04-04T21:46:36.659Z,16.50
2019-04-04T21:49:05.658Z,13.40
2019-04-04T21:51:34.554Z,10.27
2019-04-04T21:54:03.498Z,13.03
2019-04-04T21:56:32.455Z,15.33
2019-04-04T21:59:01.357Z,15.93
2019-04-04T22:01:30.324Z,16.07
2019-04-04T22:03:59.410Z,16.93
2019-04-04T22:06:28.301Z,15.63
2019-04-04T22:08:57.242Z,14.70
2019-04-04T22:11:26.291Z,17.63
2019-04-04T22:13:55.305Z,17.80
2019-04-04T22:16:24.224Z,12.20
2019-04-04T22:18:53.283Z,15.20
2019-04-04T22:21:22.194Z,14.93
2019-04-04T22:23:51.181Z,19.40
2019-04-04T22:26:20.026Z,19.80
2019-04-04T22:28:48.990Z,16.40
2019-04-04T22:31:18.013Z,19.30
2019-04-04T22:33:46.890Z,16.60
2019-04-04T22:36:15.814Z,17.67
2019-04-04T22:38:44.686Z,15.90
2019-04-04T22:41:13.573Z,70.20
2019-04-04T22:43:42.605Z,67.93
2019-04-04T22:46:11.462Z,35.60
2019-04-04T22:48:40.383Z,83.43
2019-04-04T22:51:09.358Z,75.33
2019-04-04T22:53:38.263Z,60.83
2019-04-04T22:56:07.318Z,46.53
2019-04-04T22:58:36.256Z,45.20
2019-04-04T23:01:05.118Z,85.10
2019-04-04T23:03:33.998Z,49.07
2019-04-04T23:06:03.016Z,26.17
2019-04-04T23:08:31.913Z,38.60
2019-04-04T23:11:00.855Z,26.30
2019-04-04T23:13:29.718Z,32.80
2019-04-04T23:15:58.746Z,45.43
2019-04-04T23:18:27.631Z,51.63
2019-04-04T23:20:56.490Z,59.30
2019-04-04T23:23:25.339Z,40.67
2019-04-04T23:25:54.186Z,21.70
2019-04-04T23:28:23.060Z,54.97
2019-04-04T23:30:52.050Z,37.47
2019-04-04T23:33:20.976Z,27.93
2019-04-04T23:35:49.927Z,42.57
2019-04-04T23:38:18.921Z,62.87
2019-04-04T23:40:48.550Z,28.73
2019-04-04T23:43:17.517Z,28.80
2019-04-04T23:45:46.371Z,35.40
2019-04-04T23:48:15.197Z,48.63
2019-04-04T23:50:44.176Z,49.07
2019-04-04T23:53:13.136Z,55.67
2019-04-04T23:55:42.338Z,27.90
2019-04-04T23:58:11.273Z,42.30
